Aviation Digital Data Service (ADDS)

Output produced by METARs form (1402 UTC 21 August 2019)
found at http://www.aviationweather.gov/metar/data/
 
Forecast for: OIAA (ABADAN INTL AIRP, IR)
Text: TAF OIAA 211100Z 2112/2218 30008KT 8000 NSC
Forecast period: 1200 UTC 21 August 2019 to 1800 UTC 22 August 2019
Forecast type: FROM: standard forecast or significant change
Winds: from the WNW (300 degrees) at 9 MPH (8 knots; 4.1 m/s)
Visibility: 5 miles (8 km)
Ceiling: unknown
Clouds: missing
Weather: no significant weather forecast for this period
Text: TEMPO 2118/2203 32015KT
Forecast period: 1800 UTC 21 August 2019 to 0300 UTC 22 August 2019
Forecast type: TEMPORARY: The following changes expected for less than half the time period
Winds: from the NW (320 degrees) at 17 MPH (15 knots; 7.7 m/s)
Visibility: missing
Ceiling: unknown
Clouds: missing
Weather: no significant weather forecast for this period
Text: TEMPO 2209/2218 27018KT
Forecast period: 0900 to 1800 UTC 22 August 2019
Forecast type: TEMPORARY: The following changes expected for less than half the time period
Winds: from the W (270 degrees) at 21 MPH (18 knots; 9.3 m/s)
Visibility: missing
Ceiling: unknown
Clouds: missing
Weather: no significant weather forecast for this period